Skip Navigation Links Skip Navigation Links

Current Weather

Middle Wallop, United Kingdom

For information only: do not use for flight planning or navigation.
Latest weather
Observation time Wednesday, November 25, 2020 1:50 AM GMT
Local time Wednesday, November 25, 2020 2:52 AM GMT
Flight conditions Instrument Meteorological Conditions
Winds
Wind direction South-Southeast (150°)
Wind speed 9 mph
Visibility 6.2 mi.
Sky condition
Ceiling 700 ft. broken clouds
Cloud layer broken clouds 700 ft.
Temperature 52°F
Dewpoint 50°F
Altimeter 29.80 in.Hg
Derived measurements
Relative humidity 94%
Density altitude -67 ft.
Remarks
Fully automated report.
METAR EGVP 250150Z AUTO 15008KT 9999 BKN007/// 11/10 Q1009 REDZ

Settings

Location code

InnerDrive.Weather 4.0.6770.0 Release CLR 4.0.30319.42000
Copyright ©2018 Inner Drive Technology. All rights reserved. Portions Copyright ©1986-2018 David Braverman.

Find weather

Site navigation


Skip Navigation Links

Place info

Page info

PayPal - The safer, easier way to pay online!

Return home.

Copyright ©2020 Inner Drive Technology. Purveyors of fine, hand-crafted computer software. Page printed 2020-11-25T02:52:35 UTC.